Time;durP1;ratioP1;P1;durP2;ratioP2;P2;SDS_P1;SDS_P2;PMS_P1;PMS_P2;Temp;Humidity;BMP_temperature;BMP_pressure;BME280_temperature;BME280_humidity;BME280_pressure;Samples;Min_cycle;Max_cycle;Signal;HPM_P1;HPM_P2
2023/04/28 00:00:25;;;;;;;5.30;3.13;;;13.10;70.50;;;;;;4975713;28;20438;-82
2023/04/28 00:02:51;;;;;;;5.25;2.92;;;13.10;70.70;;;;;;4975569;28;20438;-82
2023/04/28 00:05:17;;;;;;;5.40;3.20;;;13.10;70.60;;;;;;4975732;28;20077;-82
2023/04/28 00:07:42;;;;;;;4.82;2.97;;;13.10;70.50;;;;;;4975795;28;20027;-83
2023/04/28 00:10:08;;;;;;;4.68;2.55;;;13.10;70.70;;;;;;4975510;28;20026;-81
2023/04/28 00:12:34;;;;;;;4.60;2.85;;;13.00;70.60;;;;;;4975734;28;20026;-81
2023/04/28 00:14:59;;;;;;;5.85;3.25;;;13.10;70.70;;;;;;4975543;28;20037;-83
2023/04/28 00:17:25;;;;;;;4.80;2.75;;;13.10;70.60;;;;;;4975825;28;20026;-84
2023/04/28 00:19:51;;;;;;;5.15;2.80;;;13.00;70.70;;;;;;4975694;28;20552;-82
2023/04/28 00:22:17;;;;;;;5.38;2.78;;;13.10;70.80;;;;;;4975670;28;20022;-82
2023/04/28 00:24:43;;;;;;;5.53;3.00;;;13.10;70.90;;;;;;4975375;28;20049;-82
2023/04/28 00:27:09;;;;;;;4.20;2.55;;;13.10;70.90;;;;;;4992919;28;20555;-82
2023/04/28 00:29:35;;;;;;;5.97;3.15;;;13.10;70.70;;;;;;4975518;28;20037;-81
2023/04/28 00:32:01;;;;;;;5.22;3.05;;;13.10;70.80;;;;;;4978679;28;20030;-83
2023/04/28 00:34:28;;;;;;;5.20;2.90;;;13.10;70.70;;;;;;4979157;28;20026;-82
2023/04/28 00:36:54;;;;;;;4.97;2.90;;;13.10;70.80;;;;;;4979311;28;20023;-82
2023/04/28 00:39:21;;;;;;;5.75;3.25;;;13.00;70.80;;;;;;4979282;28;20025;-84
2023/04/28 00:41:47;;;;;;;5.82;3.03;;;13.00;70.80;;;;;;4996495;28;20046;-84
2023/04/28 00:44:12;;;;;;;4.95;2.83;;;13.00;70.70;;;;;;4979104;28;20069;-82
2023/04/28 00:46:38;;;;;;;4.93;2.80;;;13.10;70.70;;;;;;4979177;28;20041;-82
2023/04/28 00:49:04;;;;;;;5.07;2.72;;;13.10;70.80;;;;;;4979045;28;20026;-82
2023/04/28 00:51:32;;;;;;;5.40;2.60;;;13.10;70.80;;;;;;4996243;28;20088;-82
2023/04/28 00:53:58;;;;;;;5.65;3.40;;;13.10;70.80;;;;;;4978934;28;20023;-81
2023/04/28 00:56:26;;;;;;;4.47;2.67;;;13.10;70.80;;;;;;4996421;28;20029;-82
2023/04/28 00:58:52;;;;;;;5.13;2.70;;;13.10;70.70;;;;;;4978872;28;20027;-82
2023/04/28 01:01:18;;;;;;;5.05;2.80;;;13.00;70.80;;;;;;4978675;28;20033;-82
2023/04/28 01:03:44;;;;;;;5.25;2.80;;;13.00;70.60;;;;;;4978837;28;20081;-83
2023/04/28 01:06:09;;;;;;;5.00;2.97;;;13.00;70.70;;;;;;4978756;28;20806;-82
2023/04/28 01:08:36;;;;;;;4.55;2.67;;;13.00;70.70;;;;;;4978749;28;20034;-82
2023/04/28 01:11:02;;;;;;;4.63;2.65;;;13.00;70.70;;;;;;4996068;28;20529;-82
2023/04/28 01:13:27;;;;;;;5.55;2.95;;;13.00;70.80;;;;;;4978577;28;20034;-81
2023/04/28 01:15:54;;;;;;;4.97;3.00;;;13.00;70.80;;;;;;4978516;28;20062;-83
2023/04/28 01:18:20;;;;;;;6.13;2.85;;;13.00;70.80;;;;;;4996033;28;20479;-82
2023/04/28 01:20:45;;;;;;;6.63;2.80;;;13.00;70.70;;;;;;4995710;28;20030;-81
2023/04/28 01:23:15;;;;;;;4.90;2.90;;;13.00;70.70;;;;;;4995885;28;20044;-82
2023/04/28 01:25:41;;;;;;;5.40;2.97;;;13.00;70.70;;;;;;4978416;28;20031;-82
2023/04/28 01:28:07;;;;;;;4.95;2.83;;;13.00;70.50;;;;;;4978492;28;20035;-82
2023/04/28 01:30:34;;;;;;;5.80;3.00;;;13.00;70.70;;;;;;4978089;28;20026;-83
2023/04/28 01:33:00;;;;;;;5.30;3.08;;;13.00;70.50;;;;;;4978191;28;20184;-82
2023/04/28 01:35:25;;;;;;;4.80;2.80;;;13.00;70.60;;;;;;4978250;28;20594;-83
2023/04/28 01:37:51;;;;;;;5.55;3.10;;;13.00;70.60;;;;;;4978219;28;20029;-82
2023/04/28 01:40:16;;;;;;;5.60;2.95;;;13.00;70.60;;;;;;4995518;28;20030;-83
2023/04/28 01:42:42;;;;;;;5.57;3.35;;;13.00;70.60;;;;;;4977577;28;20113;-82
2023/04/28 01:45:08;;;;;;;4.60;2.65;;;13.00;70.60;;;;;;4978032;28;20029;-83
2023/04/28 01:47:34;;;;;;;5.60;2.75;;;13.00;70.60;;;;;;4995499;28;20022;-82
2023/04/28 01:49:59;;;;;;;4.93;2.95;;;13.00;70.60;;;;;;4995319;28;20018;-83
2023/04/28 01:52:26;;;;;;;4.47;2.83;;;13.00;70.60;;;;;;4995310;28;20054;-82
2023/04/28 01:54:52;;;;;;;6.10;3.15;;;13.00;70.40;;;;;;4995246;28;20029;-82
2023/04/28 01:57:18;;;;;;;5.32;2.78;;;13.00;70.50;;;;;;4977863;28;20019;-82
2023/04/28 01:59:43;;;;;;;5.38;2.80;;;13.00;70.50;;;;;;4977767;28;20053;-82
2023/04/28 02:02:09;;;;;;;5.60;3.05;;;13.00;70.50;;;;;;4977717;28;20026;-83
2023/04/28 02:04:34;;;;;;;4.82;2.70;;;13.00;70.50;;;;;;4977755;28;20030;-83
2023/04/28 02:07:00;;;;;;;5.15;2.85;;;13.00;70.50;;;;;;4977712;28;20026;-83
2023/04/28 02:09:25;;;;;;;5.75;3.00;;;13.00;70.50;;;;;;4977608;28;20491;-83
2023/04/28 02:11:51;;;;;;;4.88;2.80;;;13.00;70.40;;;;;;4977625;28;20404;-81
2023/04/28 02:14:16;;;;;;;5.57;3.08;;;13.00;70.50;;;;;;4977620;28;20038;-82
2023/04/28 02:16:42;;;;;;;5.45;3.15;;;13.00;70.60;;;;;;4977594;28;20026;-81
2023/04/28 02:19:07;;;;;;;5.55;3.00;;;13.00;70.50;;;;;;4977463;28;20026;-83
2023/04/28 02:21:33;;;;;;;5.38;3.20;;;13.00;70.50;;;;;;4977279;28;20023;-83
2023/04/28 02:23:58;;;;;;;5.28;2.90;;;13.00;70.60;;;;;;4977322;28;20113;-82
2023/04/28 02:26:24;;;;;;;4.82;2.70;;;13.00;70.50;;;;;;4977531;28;20129;-83
2023/04/28 02:28:50;;;;;;;4.88;2.80;;;13.00;70.60;;;;;;4977445;28;20026;-82
2023/04/28 02:31:15;;;;;;;5.15;2.90;;;13.00;70.60;;;;;;4994473;28;20454;-82
2023/04/28 02:33:41;;;;;;;5.63;3.00;;;13.00;70.50;;;;;;4977012;28;20034;-83
2023/04/28 02:36:07;;;;;;;4.88;2.67;;;13.00;70.50;;;;;;4975762;28;20383;-82
2023/04/28 02:38:33;;;;;;;6.07;3.03;;;13.00;70.50;;;;;;4977089;28;20018;-82
2023/04/28 02:41:04;;;;;;;5.93;3.10;;;12.90;70.40;;;;;;4994494;28;20030;-83
2023/04/28 02:43:34;;;;;;;6.55;2.92;;;13.00;70.50;;;;;;4976934;28;20022;-83
2023/04/28 02:45:59;;;;;;;5.05;2.85;;;13.00;70.50;;;;;;4994407;28;20085;-83
2023/04/28 02:48:25;;;;;;;5.65;3.03;;;13.00;70.50;;;;;;4977003;28;20431;-82
2023/04/28 02:50:51;;;;;;;4.97;3.05;;;13.00;70.50;;;;;;4976732;28;20026;-82
2023/04/28 02:53:18;;;;;;;5.30;2.72;;;13.00;70.60;;;;;;4976725;28;20076;-83
2023/04/28 02:55:44;;;;;;;5.05;2.83;;;13.00;70.40;;;;;;4976113;28;20070;-83
2023/04/28 02:58:09;;;;;;;5.53;3.10;;;13.00;70.50;;;;;;4976841;28;20022;-83
2023/04/28 03:00:35;;;;;;;4.97;2.83;;;13.00;70.50;;;;;;4976420;28;20018;-82
2023/04/28 03:03:01;;;;;;;5.22;3.10;;;13.00;70.50;;;;;;4976642;28;20054;-82
2023/04/28 03:05:26;;;;;;;5.25;2.70;;;13.00;70.60;;;;;;4976764;28;20026;-83
2023/04/28 03:07:52;;;;;;;5.00;3.10;;;13.00;70.60;;;;;;4976496;28;20026;-83
2023/04/28 03:10:17;;;;;;;5.22;2.92;;;12.90;70.50;;;;;;4993842;28;20041;-82
2023/04/28 03:12:43;;;;;;;5.78;3.05;;;12.90;70.50;;;;;;4976601;28;20026;-82
2023/04/28 03:15:09;;;;;;;5.03;2.83;;;13.00;70.50;;;;;;4976367;28;20038;-82
2023/04/28 03:17:37;;;;;;;5.82;2.97;;;12.90;70.50;;;;;;4993728;28;20023;-81
2023/04/28 03:20:03;;;;;;;5.00;2.90;;;13.00;70.50;;;;;;4976390;28;20022;-81
2023/04/28 03:22:29;;;;;;;5.00;2.92;;;12.90;70.50;;;;;;4976356;28;20077;-83
2023/04/28 03:24:55;;;;;;;5.45;2.85;;;12.90;70.60;;;;;;4976189;28;20035;-83
2023/04/28 03:27:21;;;;;;;5.38;2.80;;;12.90;70.60;;;;;;4976337;28;20045;-84
2023/04/28 03:29:46;;;;;;;6.00;3.00;;;13.00;70.60;;;;;;4976191;28;20480;-84
2023/04/28 03:32:12;;;;;;;5.45;3.10;;;13.00;70.70;;;;;;4976281;28;20473;-83
2023/04/28 03:34:37;;;;;;;5.00;2.95;;;13.00;70.70;;;;;;4977104;28;20037;-83
2023/04/28 03:37:03;;;;;;;6.13;3.17;;;12.90;70.60;;;;;;4976126;28;20023;-83
2023/04/28 03:39:28;;;;;;;5.55;3.15;;;12.90;70.60;;;;;;4976173;28;20502;-83
2023/04/28 03:41:54;;;;;;;4.95;3.00;;;13.00;70.70;;;;;;4975910;28;20112;-84
2023/04/28 03:44:20;;;;;;;5.90;2.95;;;12.90;70.60;;;;;;4976060;28;20395;-83
2023/04/28 03:46:47;;;;;;;5.47;3.17;;;13.00;70.60;;;;;;4993419;28;20026;-83
2023/04/28 03:49:12;;;;;;;5.55;3.10;;;13.00;70.60;;;;;;4993395;28;20026;-83
2023/04/28 03:51:38;;;;;;;5.28;3.25;;;12.90;70.60;;;;;;4993140;28;20109;-83
2023/04/28 03:54:04;;;;;;;5.28;2.70;;;12.90;70.60;;;;;;4993126;28;20039;-84
2023/04/28 03:56:30;;;;;;;6.15;3.30;;;12.90;70.60;;;;;;4975972;28;20534;-83
2023/04/28 03:58:55;;;;;;;5.78;3.10;;;12.90;70.60;;;;;;4993285;28;20101;-83
2023/04/28 04:01:21;;;;;;;5.28;3.20;;;13.00;70.70;;;;;;4993023;28;20050;-83
2023/04/28 04:03:46;;;;;;;6.20;3.08;;;12.90;70.70;;;;;;4975694;28;20030;-84
2023/04/28 04:06:12;;;;;;;5.30;3.28;;;12.90;70.70;;;;;;4975532;28;20027;-83
2023/04/28 04:08:38;;;;;;;6.22;3.30;;;12.90;70.70;;;;;;4974962;28;20451;-84
2023/04/28 04:11:03;;;;;;;5.93;3.17;;;12.90;70.60;;;;;;4973555;28;20062;-83
2023/04/28 04:13:29;;;;;;;6.88;3.33;;;12.90;70.70;;;;;;4988704;28;20100;-83
2023/04/28 04:15:54;;;;;;;5.57;3.13;;;12.90;70.70;;;;;;4973900;28;20026;-83
2023/04/28 04:18:20;;;;;;;4.97;3.17;;;12.90;70.70;;;;;;4991048;28;20027;-83
2023/04/28 04:20:45;;;;;;;5.97;3.10;;;12.90;70.70;;;;;;4973364;28;20475;-83
2023/04/28 04:23:11;;;;;;;5.90;3.45;;;12.90;70.70;;;;;;4973524;28;20030;-82
2023/04/28 04:25:36;;;;;;;5.22;3.10;;;12.80;70.60;;;;;;4973605;28;20030;-83
2023/04/28 04:28:02;;;;;;;4.97;2.97;;;12.90;70.70;;;;;;4973713;28;20192;-81
2023/04/28 04:30:28;;;;;;;5.22;3.10;;;12.90;70.80;;;;;;4973060;28;20750;-84
2023/04/28 04:32:53;;;;;;;5.28;2.90;;;12.90;70.70;;;;;;4990160;28;20583;-83
2023/04/28 04:35:19;;;;;;;5.13;3.28;;;12.90;70.70;;;;;;4972580;28;20037;-82
2023/04/28 04:37:44;;;;;;;5.47;3.22;;;12.90;70.70;;;;;;4972988;28;20085;-82
2023/04/28 04:40:10;;;;;;;6.47;3.63;;;12.90;70.70;;;;;;4972946;28;20034;-85
2023/04/28 04:42:35;;;;;;;6.13;3.63;;;12.90;70.60;;;;;;4973076;28;20116;-84
2023/04/28 04:45:01;;;;;;;6.93;3.67;;;12.90;70.80;;;;;;4972946;28;20037;-84
2023/04/28 04:47:27;;;;;;;6.43;3.90;;;12.90;70.70;;;;;;4973046;28;20023;-84
2023/04/28 04:49:53;;;;;;;5.90;3.10;;;12.90;70.80;;;;;;4989459;28;20022;-82
2023/04/28 04:52:18;;;;;;;6.28;3.28;;;12.90;70.70;;;;;;4973501;28;20034;-87
2023/04/28 04:54:45;;;;;;;6.25;3.85;;;12.90;70.70;;;;;;4973305;28;20054;-82
2023/04/28 04:57:11;;;;;;;6.80;3.40;;;12.90;70.70;;;;;;4989436;28;20081;-83
2023/04/28 04:59:37;;;;;;;5.85;3.47;;;13.20;70.90;;;;;;4973255;28;20467;-82
2023/04/28 05:02:02;;;;;;;6.22;3.58;;;12.90;70.80;;;;;;4990235;28;20551;-82
2023/04/28 05:04:28;;;;;;;5.50;3.40;;;12.90;70.70;;;;;;4989085;28;20034;-85
2023/04/28 05:06:54;;;;;;;6.75;3.35;;;12.90;70.80;;;;;;4973357;28;20124;-84
2023/04/28 05:09:20;;;;;;;6.35;3.83;;;12.90;70.80;;;;;;4972871;28;20034;-84
2023/04/28 05:11:45;;;;;;;6.88;3.60;;;12.90;70.80;;;;;;4973347;28;20382;-83
2023/04/28 05:14:11;;;;;;;7.03;3.60;;;12.90;70.70;;;;;;4972511;28;20023;-83
2023/04/28 05:16:37;;;;;;;6.03;3.42;;;12.90;70.70;;;;;;4972998;28;20025;-83
2023/04/28 05:19:03;;;;;;;7.43;3.80;;;12.90;70.70;;;;;;4975955;28;20026;-83
2023/04/28 05:21:29;;;;;;;8.73;3.60;;;12.90;70.80;;;;;;4976422;28;20027;-84
2023/04/28 05:23:56;;;;;;;6.78;3.78;;;13.00;70.90;;;;;;4976235;28;20483;-81
2023/04/28 05:26:22;;;;;;;7.28;4.10;;;12.90;70.80;;;;;;4976138;28;20550;-84
2023/04/28 05:28:47;;;;;;;6.43;3.70;;;12.90;70.80;;;;;;4976212;28;20027;-83
2023/04/28 05:31:13;;;;;;;5.57;3.38;;;13.00;70.80;;;;;;4975960;28;20061;-83
2023/04/28 05:33:38;;;;;;;6.65;3.78;;;12.80;70.70;;;;;;4975869;28;20038;-83
2023/04/28 05:36:04;;;;;;;7.43;3.80;;;12.90;70.70;;;;;;4975990;28;20061;-84
2023/04/28 05:38:31;;;;;;;8.13;3.97;;;12.90;70.80;;;;;;4975975;28;20034;-83
2023/04/28 05:40:57;;;;;;;7.28;3.95;;;12.90;70.70;;;;;;4975745;28;20022;-81
2023/04/28 05:43:22;;;;;;;6.00;3.70;;;12.90;70.90;;;;;;4975690;28;20026;-83
2023/04/28 05:45:48;;;;;;;7.13;4.05;;;13.00;70.90;;;;;;4975942;28;20161;-84
2023/04/28 05:48:14;;;;;;;6.70;4.03;;;12.90;70.90;;;;;;4975845;28;20034;-83
2023/04/28 05:50:39;;;;;;;8.02;3.58;;;13.00;71.00;;;;;;4975781;28;20030;-82
2023/04/28 05:53:06;;;;;;;7.30;3.92;;;12.90;70.90;;;;;;4975931;28;20147;-82
2023/04/28 05:55:32;;;;;;;6.28;4.10;;;12.80;70.80;;;;;;4975456;28;20030;-82
2023/04/28 05:57:58;;;;;;;6.70;3.78;;;12.80;70.90;;;;;;4991295;28;20030;-83
2023/04/28 06:00:33;;;;;;;6.20;3.97;;;12.90;71.00;;;;;;4969450;28;20021;-83
2023/04/28 06:02:59;;;;;;;6.15;4.00;;;12.90;71.00;;;;;;4991607;28;20053;-83
2023/04/28 06:05:25;;;;;;;7.07;3.92;;;12.90;71.00;;;;;;4991865;28;20501;-81
2023/04/28 06:07:50;;;;;;;7.57;4.22;;;13.00;71.00;;;;;;4991614;28;20033;-82
2023/04/28 06:10:16;;;;;;;6.45;3.95;;;12.90;71.10;;;;;;4975017;28;20129;-81
2023/04/28 06:12:41;;;;;;;6.32;4.10;;;12.90;71.00;;;;;;4991145;28;20121;-83
2023/04/28 06:15:07;;;;;;;8.32;4.18;;;13.00;71.10;;;;;;4974830;28;20514;-82
2023/04/28 06:17:33;;;;;;;6.40;4.20;;;12.90;71.10;;;;;;4992437;28;20022;-81
2023/04/28 06:19:59;;;;;;;7.68;4.40;;;12.90;71.10;;;;;;4991270;28;20026;-81
2023/04/28 06:22:25;;;;;;;6.30;3.97;;;13.80;71.60;;;;;;4991171;28;20030;-84
2023/04/28 06:24:50;;;;;;;7.13;4.20;;;12.90;71.20;;;;;;4990722;28;20401;-83
2023/04/28 06:27:16;;;;;;;7.70;4.20;;;12.80;71.30;;;;;;4990720;28;20033;-83
2023/04/28 06:29:42;;;;;;;5.72;3.63;;;12.90;71.20;;;;;;4990620;28;20461;-83
2023/04/28 06:32:07;;;;;;;7.53;4.60;;;12.90;71.20;;;;;;4990620;28;20049;-82
2023/04/28 06:34:33;;;;;;;8.82;4.70;;;12.90;71.20;;;;;;4990275;28;20034;-82
2023/04/28 06:36:59;;;;;;;7.03;4.25;;;12.90;71.20;;;;;;4990651;28;20112;-82
2023/04/28 06:39:25;;;;;;;7.68;4.30;;;13.00;71.30;;;;;;4991084;28;20058;-84
2023/04/28 06:41:50;;;;;;;7.82;4.78;;;13.00;71.30;;;;;;4990811;28;20081;-82
2023/04/28 06:44:16;;;;;;;7.53;4.65;;;12.90;71.20;;;;;;4990706;28;20034;-82
2023/04/28 06:46:42;;;;;;;7.32;4.38;;;12.90;71.30;;;;;;4990541;28;20061;-82
2023/04/28 06:49:07;;;;;;;6.88;4.55;;;13.00;71.30;;;;;;4974607;28;20034;-82
2023/04/28 06:51:33;;;;;;;7.70;4.78;;;13.00;71.40;;;;;;4990140;28;20038;-82
2023/04/28 06:53:59;;;;;;;8.77;4.68;;;12.90;71.30;;;;;;4990363;28;20506;-82
2023/04/28 06:56:24;;;;;;;6.75;3.97;;;12.90;71.30;;;;;;4990813;28;20084;-82
2023/04/28 06:58:50;;;;;;;7.57;4.43;;;12.90;71.40;;;;;;4990476;28;20030;-83
2023/04/28 07:01:16;;;;;;;6.97;4.40;;;12.90;71.40;;;;;;4990213;28;20034;-82
2023/04/28 07:03:42;;;;;;;7.55;4.22;;;12.90;71.50;;;;;;4990578;28;20475;-83
2023/04/28 07:06:07;;;;;;;7.72;4.55;;;12.90;71.50;;;;;;4990557;28;20030;-83
2023/04/28 07:08:34;;;;;;;7.13;4.78;;;12.90;71.50;;;;;;4990758;28;20023;-84
2023/04/28 07:11:03;;;;;;;8.40;4.70;;;12.90;71.50;;;;;;4989789;28;20074;-83
2023/04/28 07:13:31;;;;;;;6.50;4.40;;;12.90;71.50;;;;;;4991171;28;20022;-83
2023/04/28 07:15:57;;;;;;;7.22;4.35;;;12.90;71.50;;;;;;4993083;28;20029;-81
2023/04/28 07:18:23;;;;;;;6.80;4.30;;;12.90;71.50;;;;;;4977152;28;20471;-84
2023/04/28 07:20:49;;;;;;;6.90;4.50;;;12.90;71.50;;;;;;4992538;28;20018;-83
2023/04/28 07:23:15;;;;;;;8.38;4.43;;;12.90;71.60;;;;;;4976534;28;20487;-83
2023/04/28 07:25:40;;;;;;;6.78;4.53;;;12.90;71.50;;;;;;4994002;28;20148;-84
2023/04/28 07:28:06;;;;;;;7.90;4.47;;;12.90;71.60;;;;;;4992693;28;20507;-83
2023/04/28 07:30:33;;;;;;;7.85;4.47;;;13.00;71.70;;;;;;4976262;28;20057;-84
2023/04/28 07:32:59;;;;;;;7.47;4.53;;;12.90;71.70;;;;;;4993973;28;20033;-82
2023/04/28 07:35:24;;;;;;;18.55;6.07;;;12.90;71.70;;;;;;4992512;28;20060;-82
2023/04/28 07:37:50;;;;;;;17.63;8.05;;;12.90;69.90;;;;;;4992635;28;20450;-82
2023/04/28 07:40:16;;;;;;;16.75;7.45;;;12.80;68.50;;;;;;4993253;28;20073;-81
2023/04/28 07:42:42;;;;;;;15.68;7.47;;;12.70;68.00;;;;;;4992108;28;20027;-82
2023/04/28 07:45:08;;;;;;;12.82;7.47;;;12.60;67.70;;;;;;4992966;28;20026;-82
2023/04/28 07:47:33;;;;;;;13.60;7.90;;;12.60;68.10;;;;;;4991601;28;20044;-82
2023/04/28 07:50:03;;;;;;;11.77;7.45;;;12.60;67.70;;;;;;4992108;28;20027;-82
2023/04/28 07:52:29;;;;;;;10.23;7.22;;;12.50;67.70;;;;;;4975836;28;20027;-82
2023/04/28 07:54:54;;;;;;;11.48;7.35;;;12.50;67.80;;;;;;4992002;28;20053;-82
2023/04/28 07:57:20;;;;;;;10.52;7.20;;;12.50;67.90;;;;;;4991962;28;20022;-81
2023/04/28 07:59:45;;;;;;;11.57;7.10;;;12.50;67.90;;;;;;4992334;28;20018;-78
2023/04/28 08:02:13;;;;;;;12.40;7.65;;;12.50;68.10;;;;;;4994076;28;20102;-79
2023/04/28 08:04:38;;;;;;;11.32;7.75;;;12.50;69.30;;;;;;4993781;28;20411;-80
2023/04/28 08:07:04;;;;;;;12.98;7.93;;;12.50;70.00;;;;;;4976930;28;20031;-82
2023/04/28 08:09:29;;;;;;;12.35;8.15;;;12.40;70.80;;;;;;4992110;28;20088;-79
2023/04/28 08:11:55;;;;;;;16.88;8.23;;;12.50;71.30;;;;;;4976656;28;20030;-80
2023/04/28 08:14:21;;;;;;;13.65;7.63;;;12.50;71.60;;;;;;4991690;28;20035;-82
2023/04/28 08:16:47;;;;;;;10.23;7.05;;;12.50;71.40;;;;;;4991705;28;20446;-82
2023/04/28 08:19:12;;;;;;;16.88;7.38;;;12.50;71.00;;;;;;4991825;28;20018;-82
2023/04/28 08:21:38;;;;;;;11.20;7.53;;;12.50;70.40;;;;;;4991386;28;20022;-82
2023/04/28 08:24:04;;;;;;;11.43;7.28;;;12.50;70.10;;;;;;4992782;28;20026;-82
2023/04/28 08:26:30;;;;;;;12.07;7.32;;;12.50;69.90;;;;;;4991531;28;20129;-82
2023/04/28 08:28:55;;;;;;;12.63;7.78;;;12.50;69.70;;;;;;4991554;28;20438;-83
2023/04/28 08:31:21;;;;;;;12.45;7.80;;;12.50;69.70;;;;;;4991695;28;20085;-82
2023/04/28 08:33:49;;;;;;;13.45;8.25;;;12.50;69.70;;;;;;4992372;28;20045;-82
2023/04/28 08:36:16;;;;;;;9.70;7.22;;;12.40;69.70;;;;;;4991421;28;20027;-82
2023/04/28 08:38:43;;;;;;;11.07;7.32;;;12.50;69.60;;;;;;4991701;28;20023;-83
2023/04/28 08:41:09;;;;;;;10.35;7.13;;;12.50;69.70;;;;;;4975035;28;20411;-83
2023/04/28 08:43:35;;;;;;;12.00;7.45;;;12.50;69.80;;;;;;4992448;28;20014;-82
2023/04/28 08:46:05;;;;;;;10.88;7.22;;;12.50;69.70;;;;;;4991348;28;20498;-82
2023/04/28 08:48:38;;;;;;;11.52;7.20;;;12.50;69.90;;;;;;4991261;28;20085;-82
2023/04/28 08:51:06;;;;;;;11.75;8.15;;;12.50;70.00;;;;;;4991321;28;20118;-82
2023/04/28 08:53:38;;;;;;;13.07;7.50;;;12.50;70.00;;;;;;4977471;28;20142;-82
2023/04/28 08:56:05;;;;;;;11.00;7.45;;;12.40;70.00;;;;;;4996362;28;20046;-82
2023/04/28 08:58:31;;;;;;;12.75;7.88;;;12.40;70.10;;;;;;4996290;28;20483;-82
2023/04/28 09:00:57;;;;;;;12.35;7.30;;;12.40;70.20;;;;;;4996166;28;20084;-82
2023/04/28 09:03:22;;;;;;;12.90;7.28;;;12.40;70.20;;;;;;4995140;28;20041;-82
2023/04/28 09:05:48;;;;;;;12.00;7.75;;;12.40;70.10;;;;;;4994889;28;20030;-81
2023/04/28 09:08:14;;;;;;;11.57;7.70;;;12.40;70.20;;;;;;4994820;28;20061;-82
2023/04/28 09:10:39;;;;;;;10.15;7.20;;;12.40;70.40;;;;;;4994569;28;20030;-83
2023/04/28 09:13:06;;;;;;;11.05;7.20;;;12.40;70.40;;;;;;4995891;28;20045;-82
2023/04/28 09:15:36;;;;;;;11.15;7.32;;;12.40;70.40;;;;;;4995643;28;20027;-83
2023/04/28 09:18:03;;;;;;;11.90;7.63;;;12.40;70.40;;;;;;4994930;28;20502;-82
2023/04/28 09:20:31;;;;;;;9.95;7.13;;;12.40;70.60;;;;;;4995576;28;20257;-83
2023/04/28 09:23:16;;;;;;;10.18;6.70;;;12.40;70.70;;;;;;4978476;28;20506;-82
2023/04/28 09:26:05;;;;;;;11.43;7.65;;;12.40;70.70;;;;;;4994492;28;20117;-82
2023/04/28 09:28:32;;;;;;;12.32;7.55;;;12.40;70.80;;;;;;4994738;28;20026;-83
2023/04/28 09:30:58;;;;;;;10.48;7.63;;;12.40;70.80;;;;;;4995907;28;20030;-82
2023/04/28 09:33:24;;;;;;;12.95;8.18;;;12.30;70.80;;;;;;4995536;28;20442;-80
2023/04/28 09:35:50;;;;;;;13.02;8.25;;;12.40;70.90;;;;;;4994486;28;20040;-82
2023/04/28 09:38:17;;;;;;;10.55;7.28;;;12.40;71.00;;;;;;4994600;28;20469;-82
2023/04/28 09:41:00;;;;;;;10.05;7.28;;;12.40;71.20;;;;;;4994139;28;20041;-83
2023/04/28 09:43:34;;;;;;;9.77;7.32;;;12.30;71.00;;;;;;4994277;28;20029;-83
2023/04/28 09:46:01;;;;;;;11.15;7.20;;;12.40;71.20;;;;;;4995590;28;20105;-82
2023/04/28 09:48:30;;;;;;;10.02;7.45;;;12.40;71.20;;;;;;4994207;28;20113;-82
2023/04/28 09:50:58;;;;;;;12.25;7.63;;;12.40;71.10;;;;;;4994282;28;20026;-81
2023/04/28 09:53:24;;;;;;;10.25;7.32;;;12.40;71.00;;;;;;4994206;28;20626;-82
2023/04/28 09:55:52;;;;;;;10.57;7.38;;;12.30;71.00;;;;;;4994057;28;20125;-82
2023/04/28 09:58:22;;;;;;;11.13;7.80;;;12.40;71.20;;;;;;4993952;28;20077;-82
2023/04/28 10:00:56;;;;;;;12.52;8.02;;;12.40;71.20;;;;;;4993933;28;20494;-83
2023/04/28 10:03:24;;;;;;;10.20;7.68;;;12.40;71.40;;;;;;4977493;28;20112;-82
2023/04/28 10:05:52;;;;;;;10.40;8.23;;;12.40;71.40;;;;;;4993956;28;20153;-82
2023/04/28 10:08:18;;;;;;;11.77;8.15;;;12.40;71.50;;;;;;4977628;28;20026;-82
2023/04/28 10:10:45;;;;;;;12.52;8.48;;;12.40;71.60;;;;;;4993658;28;20034;-82
2023/04/28 10:13:11;;;;;;;11.45;7.88;;;12.40;71.50;;;;;;4977577;28;20026;-82
2023/04/28 10:15:37;;;;;;;12.27;8.45;;;12.40;71.70;;;;;;4977494;28;20026;-83
2023/04/28 10:18:05;;;;;;;11.38;8.20;;;12.40;71.70;;;;;;4993885;28;20652;-82
2023/04/28 10:20:31;;;;;;;10.48;7.82;;;12.30;71.70;;;;;;4993556;28;20480;-82
2023/04/28 10:23:23;;;;;;;12.30;8.02;;;12.40;71.70;;;;;;4977372;28;20022;-82
2023/04/28 10:25:56;;;;;;;11.48;7.95;;;12.40;71.70;;;;;;4993488;28;20066;-82
2023/04/28 10:28:22;;;;;;;11.10;7.72;;;12.40;71.80;;;;;;4994766;28;20026;-83
2023/04/28 10:31:23;;;;;;;10.98;7.80;;;12.30;71.70;;;;;;4994625;28;20029;-82
2023/04/28 10:33:49;;;;;;;11.40;8.05;;;12.40;71.80;;;;;;4934261;29;20036;-82
2023/04/28 10:36:48;;;;;;;9.60;7.38;;;12.50;71.80;;;;;;4965782;28;20040;-82
2023/04/28 10:39:14;;;;;;;13.18;8.32;;;12.50;71.70;;;;;;4993360;28;20438;-82
2023/04/28 10:41:40;;;;;;;10.60;8.00;;;12.50;71.60;;;;;;4992873;28;20022;-82
2023/04/28 10:44:28;;;;;;;11.57;8.15;;;12.50;71.60;;;;;;4993113;28;20164;-82
2023/04/28 10:47:06;;;;;;;12.07;7.90;;;12.60;71.60;;;;;;4994173;28;20032;-82
2023/04/28 10:49:54;;;;;;;12.15;8.05;;;12.60;71.50;;;;;;4993102;28;20046;-81
2023/04/28 10:52:31;;;;;;;11.43;8.13;;;12.60;71.40;;;;;;4992860;28;20029;-82
2023/04/28 10:55:32;;;;;;;11.60;8.40;;;12.60;71.40;;;;;;4992842;28;20023;-81
2023/04/28 10:58:16;;;;;;;;;;;12.60;71.50;;;;;;4993353;28;20073;-82
2023/04/28 11:00:44;;;;;;;9.48;7.05;;;12.60;71.50;;;;;;4992640;28;20005;-81
2023/04/28 11:03:52;;;;;;;11.20;8.10;;;12.60;71.50;;;;;;4992932;28;20502;-81
2023/04/28 11:06:26;;;;;;;9.63;7.13;;;12.60;71.60;;;;;;4976676;28;20046;-82
2023/04/28 11:08:54;;;;;;;11.23;7.63;;;12.60;71.70;;;;;;4992829;28;20033;-81
2023/04/28 11:11:22;;;;;;;12.73;8.38;;;12.60;71.90;;;;;;4992457;28;20046;-82
2023/04/28 11:13:49;;;;;;;10.40;6.95;;;12.60;72.10;;;;;;4992741;28;20027;-81
2023/04/28 11:16:19;;;;;;;11.23;7.45;;;12.60;72.30;;;;;;4991985;28;20065;-82
2023/04/28 11:19:03;;;;;;;11.20;7.43;;;12.60;72.40;;;;;;4992656;28;20026;-82
2023/04/28 11:21:29;;;;;;;10.70;7.07;;;12.60;72.50;;;;;;4992465;28;20265;-82
2023/04/28 11:23:56;;;;;;;11.10;7.68;;;12.60;72.60;;;;;;4992437;28;20501;-80
2023/04/28 11:26:22;;;;;;;11.20;7.28;;;12.60;72.70;;;;;;4992568;28;20033;-81
2023/04/28 11:28:52;;;;;;;10.48;7.10;;;12.60;72.80;;;;;;4993660;28;20483;-82
2023/04/28 11:31:21;;;;;;;10.32;7.25;;;12.60;73.00;;;;;;4992229;28;20072;-82
2023/04/28 11:33:51;;;;;;;11.85;6.95;;;12.60;73.30;;;;;;4992048;28;20113;-82
2023/04/28 11:36:36;;;;;;;10.73;7.20;;;12.60;73.50;;;;;;4992365;28;20030;-82
2023/04/28 11:39:07;;;;;;;9.55;7.07;;;12.60;73.70;;;;;;4993001;28;20023;-81
2023/04/28 11:41:33;;;;;;;11.80;7.30;;;12.60;73.70;;;;;;4993449;28;20029;-81
2023/04/28 11:43:59;;;;;;;10.40;7.05;;;12.60;73.60;;;;;;4975789;28;20084;-82
2023/04/28 11:46:26;;;;;;;10.73;7.05;;;12.70;73.70;;;;;;4992125;28;20033;-82
2023/04/28 11:49:05;;;;;;;10.88;6.85;;;12.70;73.70;;;;;;4992026;28;20037;-82
2023/04/28 11:51:37;;;;;;;11.65;7.43;;;12.60;74.00;;;;;;4992022;28;20057;-82
2023/04/28 11:54:03;;;;;;;;;;;12.70;74.10;;;;;;4992227;28;20084;-83
2023/04/28 11:56:28;;;;;;;10.80;7.07;;;12.60;74.30;;;;;;4976018;28;19956;-83
2023/04/28 11:59:08;;;;;;;9.55;6.63;;;12.60;74.80;;;;;;4992120;28;20113;-83
2023/04/28 12:01:50;;;;;;;9.43;6.40;;;12.60;74.70;;;;;;4991866;28;20205;-82
2023/04/28 12:04:36;;;;;;;9.98;6.68;;;12.60;74.70;;;;;;4992072;28;20060;-80
2023/04/28 12:07:12;;;;;;;9.02;6.43;;;12.70;74.60;;;;;;4992584;28;20034;-82
2023/04/28 12:09:41;;;;;;;10.25;6.20;;;12.70;74.30;;;;;;4992366;28;20026;-81
2023/04/28 12:12:09;;;;;;;9.27;6.68;;;12.70;74.20;;;;;;4992066;28;20034;-82
2023/04/28 12:14:58;;;;;;;10.00;6.38;;;12.80;73.80;;;;;;4992032;28;20034;-83
2023/04/28 12:17:32;;;;;;;8.40;6.03;;;12.80;73.60;;;;;;4984710;28;20399;-79
2023/04/28 12:19:59;;;;;;;8.00;5.40;;;12.80;73.50;;;;;;4975736;28;20030;-78
2023/04/28 12:22:25;;;;;;;8.70;5.97;;;12.90;73.40;;;;;;4992839;28;20023;-78
2023/04/28 12:25:08;;;;;;;8.38;6.10;;;12.90;73.30;;;;;;4975624;28;20031;-79
2023/04/28 12:27:38;;;;;;;8.13;5.60;;;12.90;73.20;;;;;;4978534;28;20026;-81
2023/04/28 12:30:24;;;;;;;9.52;6.40;;;12.90;73.20;;;;;;4979499;28;20033;-81
2023/04/28 12:32:50;;;;;;;8.25;5.45;;;12.90;73.10;;;;;;4979090;28;20641;-82
2023/04/28 12:35:16;;;;;;;9.23;5.80;;;12.90;73.10;;;;;;4979528;28;20124;-82
2023/04/28 12:37:42;;;;;;;7.95;5.55;;;12.90;73.10;;;;;;4979579;28;20053;-82
2023/04/28 12:40:09;;;;;;;8.10;5.65;;;12.90;73.10;;;;;;4979056;28;20022;-79
2023/04/28 12:42:35;;;;;;;8.45;5.43;;;12.90;73.00;;;;;;4979489;28;20023;-82
2023/04/28 12:45:01;;;;;;;8.10;5.43;;;13.00;73.10;;;;;;4979437;28;20121;-81